CheckWX is a tool to help pilots better visualize weather data.  It is not intended as a substitute for an official pre-flight weather briefing.

03:28:43 UTC

LJLJ METAR
Ljubljana Jože Pučnik Airport
Ljubljana, Slovenia
Current

29 mins ago

LJLJ 020300Z 30002KT CAVOK M06/M07 Q1016 NOSIG
Observed
Apr-2 @ 03:00 UTC
Wind
  • 300° at 2 KTS
Visibility
10,000+ meters
Flight Rules
VFR
Cloud Levels
  • Clear skies
Temperature
-6°C / 21°F
Dewpoint
-7°C / 19°F
Humidity
93%
Altimeter
30" Hg
Pressure
1015.92 hPa
Previous

59 mins ago

LJLJ 020230Z VRB01KT CAVOK M05/M07 Q1016 NOSIG
Observed
Apr-2 @ 02:30 UTC
Wind
  • Variable at 1 KTS
Visibility
10,000+ meters
Flight Rules
VFR
Cloud Levels
  • Clear skies
Temperature
-5°C / 23°F
Dewpoint
-7°C / 19°F
Humidity
86%
Altimeter
30" Hg
Pressure
1015.92 hPa
Previous

1 hour ago

LJLJ 020200Z VRB01KT CAVOK M05/M07 Q1016 NOSIG
Observed
Apr-2 @ 02:00 UTC
Wind
  • Variable at 1 KTS
Visibility
10,000+ meters
Flight Rules
VFR
Cloud Levels
  • Clear skies
Temperature
-5°C / 23°F
Dewpoint
-7°C / 19°F
Humidity
86%
Altimeter
30" Hg
Pressure
1015.92 hPa